sensor_id;sensor_type;location;lat;lon;timestamp;P1;durP1;ratioP1;P2;durP2;ratioP2
13163;SDS011;6647;53.688;10.746;2024-01-16T00:00:36;3.65;;;2.10;;
13163;SDS011;6647;53.688;10.746;2024-01-16T00:01:36;6.30;;;2.60;;
13163;SDS011;6647;53.688;10.746;2024-01-16T00:02:37;2.63;;;2.42;;
13163;SDS011;6647;53.688;10.746;2024-01-16T00:03:39;2.50;;;2.00;;
13163;SDS011;6647;53.688;10.746;2024-01-16T00:04:39;3.77;;;2.70;;
13163;SDS011;6647;53.688;10.746;2024-01-16T00:05:40;2.85;;;2.10;;
13163;SDS011;6647;53.688;10.746;2024-01-16T00:06:41;2.83;;;2.13;;
13163;SDS011;6647;53.688;10.746;2024-01-16T00:07:42;6.90;;;2.10;;
13163;SDS011;6647;53.688;10.746;2024-01-16T00:08:42;3.43;;;2.20;;
13163;SDS011;6647;53.688;10.746;2024-01-16T00:09:43;2.50;;;2.30;;
13163;SDS011;6647;53.688;10.746;2024-01-16T00:10:43;2.90;;;2.10;;
13163;SDS011;6647;53.688;10.746;2024-01-16T00:11:43;2.00;;;1.67;;
13163;SDS011;6647;53.688;10.746;2024-01-16T00:12:44;4.20;;;2.23;;
13163;SDS011;6647;53.688;10.746;2024-01-16T00:13:44;6.40;;;2.77;;
13163;SDS011;6647;53.688;10.746;2024-01-16T00:14:44;2.67;;;2.10;;
13163;SDS011;6647;53.688;10.746;2024-01-16T00:15:45;3.30;;;2.80;;
13163;SDS011;6647;53.688;10.746;2024-01-16T00:16:45;3.73;;;2.83;;
13163;SDS011;6647;53.688;10.746;2024-01-16T00:17:46;3.95;;;2.70;;
13163;SDS011;6647;53.688;10.746;2024-01-16T00:18:47;3.30;;;2.60;;
13163;SDS011;6647;53.688;10.746;2024-01-16T00:19:47;9.30;;;2.90;;
13163;SDS011;6647;53.688;10.746;2024-01-16T00:20:47;6.70;;;2.50;;
13163;SDS011;6647;53.688;10.746;2024-01-16T00:21:47;4.67;;;2.63;;
13163;SDS011;6647;53.688;10.746;2024-01-16T00:22:48;2.43;;;2.23;;
13163;SDS011;6647;53.688;10.746;2024-01-16T00:23:48;5.87;;;2.87;;
13163;SDS011;6647;53.688;10.746;2024-01-16T00:24:48;4.57;;;3.20;;
13163;SDS011;6647;53.688;10.746;2024-01-16T00:25:48;3.40;;;2.30;;
13163;SDS011;6647;53.688;10.746;2024-01-16T00:26:49;9.40;;;3.40;;
13163;SDS011;6647;53.688;10.746;2024-01-16T00:27:54;5.05;;;3.40;;
13163;SDS011;6647;53.688;10.746;2024-01-16T00:28:54;7.10;;;3.28;;
13163;SDS011;6647;53.688;10.746;2024-01-16T00:29:55;3.77;;;3.17;;
13163;SDS011;6647;53.688;10.746;2024-01-16T00:30:55;4.43;;;3.23;;
13163;SDS011;6647;53.688;10.746;2024-01-16T00:31:56;4.03;;;3.42;;
13163;SDS011;6647;53.688;10.746;2024-01-16T00:32:57;5.78;;;3.05;;
13163;SDS011;6647;53.688;10.746;2024-01-16T00:33:58;8.67;;;3.10;;
13163;SDS011;6647;53.688;10.746;2024-01-16T00:34:58;10.90;;;3.50;;
13163;SDS011;6647;53.688;10.746;2024-01-16T00:35:59;9.60;;;3.80;;
13163;SDS011;6647;53.688;10.746;2024-01-16T00:36:59;5.13;;;3.23;;
13163;SDS011;6647;53.688;10.746;2024-01-16T00:37:59;6.23;;;3.27;;
13163;SDS011;6647;53.688;10.746;2024-01-16T00:39:00;5.73;;;3.70;;
13163;SDS011;6647;53.688;10.746;2024-01-16T00:40:02;4.90;;;3.58;;
13163;SDS011;6647;53.688;10.746;2024-01-16T00:41:05;8.20;;;3.95;;
13163;SDS011;6647;53.688;10.746;2024-01-16T00:42:07;6.55;;;3.50;;
13163;SDS011;6647;53.688;10.746;2024-01-16T00:43:08;6.93;;;3.67;;
13163;SDS011;6647;53.688;10.746;2024-01-16T00:44:10;8.60;;;3.50;;
13163;SDS011;6647;53.688;10.746;2024-01-16T00:45:11;4.85;;;3.90;;
13163;SDS011;6647;53.688;10.746;2024-01-16T00:46:12;4.70;;;4.20;;
13163;SDS011;6647;53.688;10.746;2024-01-16T00:47:12;3.80;;;3.40;;
13163;SDS011;6647;53.688;10.746;2024-01-16T00:48:13;7.00;;;4.10;;
13163;SDS011;6647;53.688;10.746;2024-01-16T00:49:14;5.80;;;3.83;;
13163;SDS011;6647;53.688;10.746;2024-01-16T00:50:14;8.03;;;4.27;;
13163;SDS011;6647;53.688;10.746;2024-01-16T00:51:14;3.90;;;3.60;;
13163;SDS011;6647;53.688;10.746;2024-01-16T00:52:14;6.67;;;3.97;;
13163;SDS011;6647;53.688;10.746;2024-01-16T00:53:15;6.40;;;4.50;;
13163;SDS011;6647;53.688;10.746;2024-01-16T00:54:16;9.57;;;6.55;;
13163;SDS011;6647;53.688;10.746;2024-01-16T00:55:16;11.80;;;4.00;;
13163;SDS011;6647;53.688;10.746;2024-01-16T00:56:17;4.70;;;3.90;;
13163;SDS011;6647;53.688;10.746;2024-01-16T00:57:17;7.43;;;4.67;;
13163;SDS011;6647;53.688;10.746;2024-01-16T00:58:21;7.85;;;4.10;;
13163;SDS011;6647;53.688;10.746;2024-01-16T00:59:21;9.23;;;4.00;;
13163;SDS011;6647;53.688;10.746;2024-01-16T01:00:23;8.15;;;4.40;;
13163;SDS011;6647;53.688;10.746;2024-01-16T01:01:24;10.23;;;3.95;;
13163;SDS011;6647;53.688;10.746;2024-01-16T01:02:26;6.07;;;3.65;;
13163;SDS011;6647;53.688;10.746;2024-01-16T01:03:27;5.30;;;4.45;;
13163;SDS011;6647;53.688;10.746;2024-01-16T01:04:28;4.30;;;3.77;;
13163;SDS011;6647;53.688;10.746;2024-01-16T01:05:28;6.13;;;3.70;;
13163;SDS011;6647;53.688;10.746;2024-01-16T01:06:28;6.50;;;3.50;;
13163;SDS011;6647;53.688;10.746;2024-01-16T01:07:29;6.50;;;3.60;;
13163;SDS011;6647;53.688;10.746;2024-01-16T01:08:29;4.80;;;3.67;;
13163;SDS011;6647;53.688;10.746;2024-01-16T01:09:31;5.60;;;3.50;;
13163;SDS011;6647;53.688;10.746;2024-01-16T01:10:33;5.28;;;3.13;;
13163;SDS011;6647;53.688;10.746;2024-01-16T01:11:35;10.57;;;3.40;;
13163;SDS011;6647;53.688;10.746;2024-01-16T01:12:37;5.60;;;4.10;;
13163;SDS011;6647;53.688;10.746;2024-01-16T01:13:39;4.80;;;3.40;;
13163;SDS011;6647;53.688;10.746;2024-01-16T01:14:41;5.05;;;3.55;;
13163;SDS011;6647;53.688;10.746;2024-01-16T01:15:42;8.93;;;3.37;;
13163;SDS011;6647;53.688;10.746;2024-01-16T01:16:42;10.37;;;2.90;;
13163;SDS011;6647;53.688;10.746;2024-01-16T01:17:43;7.80;;;3.23;;
13163;SDS011;6647;53.688;10.746;2024-01-16T01:18:43;6.00;;;3.40;;
13163;SDS011;6647;53.688;10.746;2024-01-16T01:19:43;6.93;;;3.67;;
13163;SDS011;6647;53.688;10.746;2024-01-16T01:20:44;4.20;;;2.83;;
13163;SDS011;6647;53.688;10.746;2024-01-16T01:21:44;4.30;;;2.70;;
13163;SDS011;6647;53.688;10.746;2024-01-16T01:22:45;6.20;;;3.30;;
13163;SDS011;6647;53.688;10.746;2024-01-16T01:23:45;7.37;;;3.03;;
13163;SDS011;6647;53.688;10.746;2024-01-16T01:24:45;9.90;;;3.20;;
13163;SDS011;6647;53.688;10.746;2024-01-16T01:25:46;8.20;;;3.30;;
13163;SDS011;6647;53.688;10.746;2024-01-16T01:26:46;7.10;;;3.33;;
13163;SDS011;6647;53.688;10.746;2024-01-16T01:27:46;7.13;;;2.77;;
13163;SDS011;6647;53.688;10.746;2024-01-16T01:28:47;9.80;;;2.97;;
13163;SDS011;6647;53.688;10.746;2024-01-16T01:29:47;10.70;;;3.90;;
13163;SDS011;6647;53.688;10.746;2024-01-16T01:30:48;4.23;;;3.00;;
13163;SDS011;6647;53.688;10.746;2024-01-16T01:31:48;4.70;;;2.90;;
13163;SDS011;6647;53.688;10.746;2024-01-16T01:32:48;5.80;;;2.87;;
13163;SDS011;6647;53.688;10.746;2024-01-16T01:33:48;4.23;;;3.23;;
13163;SDS011;6647;53.688;10.746;2024-01-16T01:34:49;5.03;;;2.83;;
13163;SDS011;6647;53.688;10.746;2024-01-16T01:35:49;9.33;;;2.90;;
13163;SDS011;6647;53.688;10.746;2024-01-16T01:36:49;6.23;;;3.37;;
13163;SDS011;6647;53.688;10.746;2024-01-16T01:37:51;5.45;;;2.80;;
13163;SDS011;6647;53.688;10.746;2024-01-16T01:38:52;6.57;;;3.83;;
13163;SDS011;6647;53.688;10.746;2024-01-16T01:39:53;6.97;;;2.67;;
13163;SDS011;6647;53.688;10.746;2024-01-16T01:40:53;6.80;;;3.13;;
13163;SDS011;6647;53.688;10.746;2024-01-16T01:41:54;6.50;;;3.93;;
13163;SDS011;6647;53.688;10.746;2024-01-16T01:42:55;5.22;;;2.95;;
13163;SDS011;6647;53.688;10.746;2024-01-16T01:43:57;4.95;;;3.10;;
13163;SDS011;6647;53.688;10.746;2024-01-16T01:44:58;5.57;;;3.45;;
13163;SDS011;6647;53.688;10.746;2024-01-16T01:46:08;8.10;;;3.10;;
13163;SDS011;6647;53.688;10.746;2024-01-16T01:47:10;3.28;;;2.97;;
13163;SDS011;6647;53.688;10.746;2024-01-16T01:48:12;3.35;;;2.95;;
13163;SDS011;6647;53.688;10.746;2024-01-16T01:49:13;5.50;;;3.30;;
13163;SDS011;6647;53.688;10.746;2024-01-16T01:50:15;4.45;;;2.90;;
13163;SDS011;6647;53.688;10.746;2024-01-16T01:51:17;3.80;;;3.20;;
13163;SDS011;6647;53.688;10.746;2024-01-16T01:52:20;4.20;;;3.60;;
13163;SDS011;6647;53.688;10.746;2024-01-16T01:53:20;3.90;;;3.00;;
13163;SDS011;6647;53.688;10.746;2024-01-16T01:54:21;3.60;;;3.30;;
13163;SDS011;6647;53.688;10.746;2024-01-16T01:55:22;3.90;;;3.50;;
13163;SDS011;6647;53.688;10.746;2024-01-16T01:56:23;5.10;;;3.07;;
13163;SDS011;6647;53.688;10.746;2024-01-16T01:57:23;10.80;;;3.57;;
13163;SDS011;6647;53.688;10.746;2024-01-16T01:58:25;5.07;;;2.90;;
13163;SDS011;6647;53.688;10.746;2024-01-16T01:59:25;7.13;;;3.50;;
13163;SDS011;6647;53.688;10.746;2024-01-16T02:00:26;4.47;;;3.77;;
13163;SDS011;6647;53.688;10.746;2024-01-16T02:01:28;5.80;;;3.47;;
13163;SDS011;6647;53.688;10.746;2024-01-16T02:02:29;4.68;;;3.65;;
13163;SDS011;6647;53.688;10.746;2024-01-16T02:03:29;5.13;;;3.30;;
13163;SDS011;6647;53.688;10.746;2024-01-16T02:04:34;6.05;;;3.92;;
13163;SDS011;6647;53.688;10.746;2024-01-16T02:05:38;9.23;;;3.55;;
13163;SDS011;6647;53.688;10.746;2024-01-16T02:06:41;6.95;;;3.80;;
13163;SDS011;6647;53.688;10.746;2024-01-16T02:07:42;5.43;;;3.35;;
13163;SDS011;6647;53.688;10.746;2024-01-16T02:08:43;9.67;;;3.60;;
13163;SDS011;6647;53.688;10.746;2024-01-16T02:09:44;5.80;;;3.60;;
13163;SDS011;6647;53.688;10.746;2024-01-16T02:10:45;5.83;;;3.70;;
13163;SDS011;6647;53.688;10.746;2024-01-16T02:11:47;4.53;;;3.92;;
13163;SDS011;6647;53.688;10.746;2024-01-16T02:12:48;8.00;;;4.07;;
13163;SDS011;6647;53.688;10.746;2024-01-16T02:13:48;7.60;;;4.30;;
13163;SDS011;6647;53.688;10.746;2024-01-16T02:14:50;7.35;;;4.55;;
13163;SDS011;6647;53.688;10.746;2024-01-16T02:15:52;13.68;;;4.50;;
13163;SDS011;6647;53.688;10.746;2024-01-16T02:16:54;5.18;;;3.97;;
13163;SDS011;6647;53.688;10.746;2024-01-16T02:17:56;6.32;;;3.95;;
13163;SDS011;6647;53.688;10.746;2024-01-16T02:18:58;5.93;;;4.07;;
13163;SDS011;6647;53.688;10.746;2024-01-16T02:19:58;6.90;;;4.50;;
13163;SDS011;6647;53.688;10.746;2024-01-16T02:21:02;6.10;;;3.60;;
13163;SDS011;6647;53.688;10.746;2024-01-16T02:22:06;4.30;;;3.50;;
13163;SDS011;6647;53.688;10.746;2024-01-16T02:23:12;6.50;;;4.25;;
13163;SDS011;6647;53.688;10.746;2024-01-16T02:24:13;5.55;;;3.67;;
13163;SDS011;6647;53.688;10.746;2024-01-16T02:25:15;6.82;;;3.95;;
13163;SDS011;6647;53.688;10.746;2024-01-16T02:26:15;13.10;;;4.83;;
13163;SDS011;6647;53.688;10.746;2024-01-16T02:27:16;4.27;;;3.47;;
13163;SDS011;6647;53.688;10.746;2024-01-16T02:28:17;10.07;;;3.80;;
13163;SDS011;6647;53.688;10.746;2024-01-16T02:29:17;5.20;;;3.97;;
13163;SDS011;6647;53.688;10.746;2024-01-16T02:30:17;8.17;;;3.87;;
13163;SDS011;6647;53.688;10.746;2024-01-16T02:31:18;8.40;;;4.10;;
13163;SDS011;6647;53.688;10.746;2024-01-16T02:32:20;4.05;;;3.50;;
13163;SDS011;6647;53.688;10.746;2024-01-16T02:33:22;8.30;;;4.43;;
13163;SDS011;6647;53.688;10.746;2024-01-16T02:34:24;4.50;;;3.95;;
13163;SDS011;6647;53.688;10.746;2024-01-16T02:35:26;5.50;;;3.60;;
13163;SDS011;6647;53.688;10.746;2024-01-16T02:36:27;6.70;;;3.78;;
13163;SDS011;6647;53.688;10.746;2024-01-16T02:37:29;4.43;;;3.80;;
13163;SDS011;6647;53.688;10.746;2024-01-16T02:38:29;8.67;;;3.97;;
13163;SDS011;6647;53.688;10.746;2024-01-16T02:39:29;4.70;;;4.27;;
13163;SDS011;6647;53.688;10.746;2024-01-16T02:40:30;7.43;;;4.20;;
13163;SDS011;6647;53.688;10.746;2024-01-16T02:41:31;5.53;;;3.80;;
13163;SDS011;6647;53.688;10.746;2024-01-16T02:42:32;6.70;;;4.80;;
13163;SDS011;6647;53.688;10.746;2024-01-16T02:43:33;8.40;;;4.40;;
13163;SDS011;6647;53.688;10.746;2024-01-16T02:44:34;5.55;;;4.70;;
13163;SDS011;6647;53.688;10.746;2024-01-16T02:45:35;9.77;;;4.23;;
13163;SDS011;6647;53.688;10.746;2024-01-16T02:46:35;14.03;;;5.00;;
13163;SDS011;6647;53.688;10.746;2024-01-16T02:47:35;7.87;;;4.60;;
13163;SDS011;6647;53.688;10.746;2024-01-16T02:48:36;10.10;;;5.03;;
13163;SDS011;6647;53.688;10.746;2024-01-16T02:49:36;9.20;;;4.17;;
13163;SDS011;6647;53.688;10.746;2024-01-16T02:50:37;5.30;;;4.23;;
13163;SDS011;6647;53.688;10.746;2024-01-16T02:51:38;12.13;;;5.35;;
13163;SDS011;6647;53.688;10.746;2024-01-16T02:52:39;8.68;;;4.70;;
13163;SDS011;6647;53.688;10.746;2024-01-16T02:53:41;9.45;;;4.75;;
13163;SDS011;6647;53.688;10.746;2024-01-16T02:54:42;7.72;;;4.78;;
13163;SDS011;6647;53.688;10.746;2024-01-16T02:55:42;6.77;;;4.70;;
13163;SDS011;6647;53.688;10.746;2024-01-16T02:56:42;5.57;;;4.20;;
13163;SDS011;6647;53.688;10.746;2024-01-16T02:57:43;8.10;;;4.93;;
13163;SDS011;6647;53.688;10.746;2024-01-16T02:58:44;7.93;;;5.00;;
13163;SDS011;6647;53.688;10.746;2024-01-16T02:59:44;15.15;;;5.43;;
13163;SDS011;6647;53.688;10.746;2024-01-16T03:00:45;5.17;;;4.17;;
13163;SDS011;6647;53.688;10.746;2024-01-16T03:01:45;7.57;;;4.43;;
13163;SDS011;6647;53.688;10.746;2024-01-16T03:02:45;5.17;;;4.20;;
13163;SDS011;6647;53.688;10.746;2024-01-16T03:03:45;5.23;;;4.43;;
13163;SDS011;6647;53.688;10.746;2024-01-16T03:04:46;6.80;;;4.53;;
13163;SDS011;6647;53.688;10.746;2024-01-16T03:05:46;5.20;;;4.17;;
13163;SDS011;6647;53.688;10.746;2024-01-16T03:06:47;10.80;;;4.30;;
13163;SDS011;6647;53.688;10.746;2024-01-16T03:07:47;8.17;;;4.47;;
13163;SDS011;6647;53.688;10.746;2024-01-16T03:08:48;6.07;;;4.00;;
13163;SDS011;6647;53.688;10.746;2024-01-16T03:09:48;8.33;;;4.37;;
13163;SDS011;6647;53.688;10.746;2024-01-16T03:10:48;6.60;;;4.00;;
13163;SDS011;6647;53.688;10.746;2024-01-16T03:11:50;9.13;;;4.25;;
13163;SDS011;6647;53.688;10.746;2024-01-16T03:12:52;6.38;;;4.57;;
13163;SDS011;6647;53.688;10.746;2024-01-16T03:13:54;8.05;;;4.05;;
13163;SDS011;6647;53.688;10.746;2024-01-16T03:14:55;6.97;;;4.65;;
13163;SDS011;6647;53.688;10.746;2024-01-16T03:15:57;10.20;;;4.25;;
13163;SDS011;6647;53.688;10.746;2024-01-16T03:16:57;5.80;;;3.50;;
13163;SDS011;6647;53.688;10.746;2024-01-16T03:17:58;10.37;;;4.43;;
13163;SDS011;6647;53.688;10.746;2024-01-16T03:18:59;7.40;;;4.20;;
13163;SDS011;6647;53.688;10.746;2024-01-16T03:19:59;6.90;;;4.80;;
13163;SDS011;6647;53.688;10.746;2024-01-16T03:20:59;10.73;;;4.40;;
13163;SDS011;6647;53.688;10.746;2024-01-16T03:21:59;5.50;;;4.20;;
13163;SDS011;6647;53.688;10.746;2024-01-16T03:23:00;8.60;;;4.77;;
13163;SDS011;6647;53.688;10.746;2024-01-16T03:24:00;4.33;;;3.93;;
13163;SDS011;6647;53.688;10.746;2024-01-16T03:25:00;6.80;;;4.10;;
13163;SDS011;6647;53.688;10.746;2024-01-16T03:26:02;5.03;;;3.95;;
13163;SDS011;6647;53.688;10.746;2024-01-16T03:27:03;8.15;;;4.50;;
13163;SDS011;6647;53.688;10.746;2024-01-16T03:28:06;7.63;;;4.60;;
13163;SDS011;6647;53.688;10.746;2024-01-16T03:29:12;7.47;;;4.75;;
13163;SDS011;6647;53.688;10.746;2024-01-16T03:30:12;5.67;;;4.80;;
13163;SDS011;6647;53.688;10.746;2024-01-16T03:31:13;6.40;;;4.40;;
13163;SDS011;6647;53.688;10.746;2024-01-16T03:32:14;8.45;;;5.03;;
13163;SDS011;6647;53.688;10.746;2024-01-16T03:33:14;8.07;;;4.87;;
13163;SDS011;6647;53.688;10.746;2024-01-16T03:34:14;5.67;;;4.37;;
13163;SDS011;6647;53.688;10.746;2024-01-16T03:35:15;6.47;;;4.50;;
13163;SDS011;6647;53.688;10.746;2024-01-16T03:36:16;6.13;;;4.20;;
13163;SDS011;6647;53.688;10.746;2024-01-16T03:37:16;5.00;;;3.90;;
13163;SDS011;6647;53.688;10.746;2024-01-16T03:38:16;7.83;;;4.53;;
13163;SDS011;6647;53.688;10.746;2024-01-16T03:39:17;7.73;;;4.23;;
13163;SDS011;6647;53.688;10.746;2024-01-16T03:40:17;6.17;;;4.07;;
13163;SDS011;6647;53.688;10.746;2024-01-16T03:41:18;7.70;;;4.50;;
13163;SDS011;6647;53.688;10.746;2024-01-16T03:42:18;5.97;;;4.00;;
13163;SDS011;6647;53.688;10.746;2024-01-16T03:43:18;5.03;;;4.33;;
13163;SDS011;6647;53.688;10.746;2024-01-16T03:44:19;6.57;;;4.87;;
13163;SDS011;6647;53.688;10.746;2024-01-16T03:45:19;10.57;;;4.40;;
13163;SDS011;6647;53.688;10.746;2024-01-16T03:46:20;6.87;;;3.70;;
13163;SDS011;6647;53.688;10.746;2024-01-16T03:47:22;6.28;;;4.50;;
13163;SDS011;6647;53.688;10.746;2024-01-16T03:48:24;6.97;;;4.68;;
13163;SDS011;6647;53.688;10.746;2024-01-16T03:49:25;8.05;;;5.00;;
13163;SDS011;6647;53.688;10.746;2024-01-16T03:50:28;7.15;;;4.53;;
13163;SDS011;6647;53.688;10.746;2024-01-16T03:51:29;7.15;;;4.70;;
13163;SDS011;6647;53.688;10.746;2024-01-16T03:52:29;10.10;;;5.33;;
13163;SDS011;6647;53.688;10.746;2024-01-16T03:53:29;10.57;;;4.83;;
13163;SDS011;6647;53.688;10.746;2024-01-16T03:54:30;6.10;;;4.90;;
13163;SDS011;6647;53.688;10.746;2024-01-16T03:55:30;11.10;;;5.30;;
13163;SDS011;6647;53.688;10.746;2024-01-16T03:56:33;4.75;;;4.30;;
13163;SDS011;6647;53.688;10.746;2024-01-16T03:57:33;9.30;;;4.40;;
13163;SDS011;6647;53.688;10.746;2024-01-16T03:58:35;5.65;;;3.88;;
13163;SDS011;6647;53.688;10.746;2024-01-16T03:59:36;5.77;;;4.30;;
13163;SDS011;6647;53.688;10.746;2024-01-16T04:00:39;7.45;;;4.88;;
13163;SDS011;6647;53.688;10.746;2024-01-16T04:01:41;8.70;;;5.03;;
13163;SDS011;6647;53.688;10.746;2024-01-16T04:02:43;8.38;;;4.82;;
13163;SDS011;6647;53.688;10.746;2024-01-16T04:03:43;6.57;;;4.63;;
13163;SDS011;6647;53.688;10.746;2024-01-16T04:04:43;7.07;;;4.67;;
13163;SDS011;6647;53.688;10.746;2024-01-16T04:05:43;6.83;;;4.30;;
13163;SDS011;6647;53.688;10.746;2024-01-16T04:06:44;6.83;;;4.60;;
13163;SDS011;6647;53.688;10.746;2024-01-16T04:07:44;8.10;;;4.27;;
13163;SDS011;6647;53.688;10.746;2024-01-16T04:08:45;7.97;;;5.30;;
13163;SDS011;6647;53.688;10.746;2024-01-16T04:09:45;5.78;;;4.63;;
13163;SDS011;6647;53.688;10.746;2024-01-16T04:10:45;5.83;;;4.53;;
13163;SDS011;6647;53.688;10.746;2024-01-16T04:11:49;7.17;;;5.10;;
13163;SDS011;6647;53.688;10.746;2024-01-16T04:12:52;10.05;;;5.30;;
13163;SDS011;6647;53.688;10.746;2024-01-16T04:13:54;6.10;;;5.05;;
13163;SDS011;6647;53.688;10.746;2024-01-16T04:14:55;7.65;;;4.90;;
13163;SDS011;6647;53.688;10.746;2024-01-16T04:15:56;5.07;;;4.40;;
13163;SDS011;6647;53.688;10.746;2024-01-16T04:16:57;6.97;;;5.35;;
13163;SDS011;6647;53.688;10.746;2024-01-16T04:17:59;10.02;;;4.85;;
13163;SDS011;6647;53.688;10.746;2024-01-16T04:18:59;7.13;;;4.90;;
13163;SDS011;6647;53.688;10.746;2024-01-16T04:20:00;12.73;;;4.93;;
13163;SDS011;6647;53.688;10.746;2024-01-16T04:21:00;7.33;;;4.87;;
13163;SDS011;6647;53.688;10.746;2024-01-16T04:22:00;8.07;;;4.67;;
13163;SDS011;6647;53.688;10.746;2024-01-16T04:23:03;7.28;;;5.45;;
13163;SDS011;6647;53.688;10.746;2024-01-16T04:24:05;7.63;;;5.45;;
13163;SDS011;6647;53.688;10.746;2024-01-16T04:25:07;13.27;;;5.50;;
13163;SDS011;6647;53.688;10.746;2024-01-16T04:26:08;9.65;;;5.43;;
13163;SDS011;6647;53.688;10.746;2024-01-16T04:27:11;5.93;;;4.93;;
13163;SDS011;6647;53.688;10.746;2024-01-16T04:28:12;8.10;;;5.45;;
13163;SDS011;6647;53.688;10.746;2024-01-16T04:29:12;4.80;;;4.33;;
13163;SDS011;6647;53.688;10.746;2024-01-16T04:30:14;6.28;;;4.78;;
13163;SDS011;6647;53.688;10.746;2024-01-16T04:31:14;6.40;;;4.77;;
13163;SDS011;6647;53.688;10.746;2024-01-16T04:32:17;5.57;;;4.90;;
13163;SDS011;6647;53.688;10.746;2024-01-16T04:33:17;8.97;;;5.30;;
13163;SDS011;6647;53.688;10.746;2024-01-16T04:34:17;7.50;;;5.40;;
13163;SDS011;6647;53.688;10.746;2024-01-16T04:35:18;8.93;;;4.73;;
13163;SDS011;6647;53.688;10.746;2024-01-16T04:36:18;6.00;;;5.00;;
13163;SDS011;6647;53.688;10.746;2024-01-16T04:37:18;5.80;;;5.20;;
13163;SDS011;6647;53.688;10.746;2024-01-16T04:38:19;6.25;;;5.22;;
13163;SDS011;6647;53.688;10.746;2024-01-16T04:39:21;8.30;;;5.15;;
13163;SDS011;6647;53.688;10.746;2024-01-16T04:40:24;6.15;;;4.63;;
13163;SDS011;6647;53.688;10.746;2024-01-16T04:41:26;9.18;;;4.97;;
13163;SDS011;6647;53.688;10.746;2024-01-16T04:42:28;6.88;;;4.78;;
13163;SDS011;6647;53.688;10.746;2024-01-16T04:43:29;5.50;;;4.90;;
13163;SDS011;6647;53.688;10.746;2024-01-16T04:44:30;7.57;;;6.03;;
13163;SDS011;6647;53.688;10.746;2024-01-16T04:45:30;8.83;;;6.40;;
13163;SDS011;6647;53.688;10.746;2024-01-16T04:46:30;10.20;;;6.03;;
13163;SDS011;6647;53.688;10.746;2024-01-16T04:47:31;9.50;;;6.10;;
13163;SDS011;6647;53.688;10.746;2024-01-16T04:48:31;10.23;;;5.60;;
13163;SDS011;6647;53.688;10.746;2024-01-16T04:49:32;8.65;;;6.05;;
13163;SDS011;6647;53.688;10.746;2024-01-16T04:50:35;12.95;;;6.75;;
13163;SDS011;6647;53.688;10.746;2024-01-16T04:51:36;12.38;;;5.80;;
13163;SDS011;6647;53.688;10.746;2024-01-16T04:52:38;9.18;;;5.43;;
13163;SDS011;6647;53.688;10.746;2024-01-16T04:53:40;12.88;;;6.93;;
13163;SDS011;6647;53.688;10.746;2024-01-16T04:54:41;6.80;;;5.80;;
13163;SDS011;6647;53.688;10.746;2024-01-16T04:55:42;11.10;;;6.53;;
13163;SDS011;6647;53.688;10.746;2024-01-16T04:56:42;14.87;;;6.53;;
13163;SDS011;6647;53.688;10.746;2024-01-16T04:57:43;11.13;;;6.10;;
13163;SDS011;6647;53.688;10.746;2024-01-16T04:58:43;8.60;;;5.57;;
13163;SDS011;6647;53.688;10.746;2024-01-16T04:59:43;10.80;;;7.27;;
13163;SDS011;6647;53.688;10.746;2024-01-16T05:00:43;10.63;;;6.30;;
13163;SDS011;6647;53.688;10.746;2024-01-16T05:01:44;8.10;;;5.23;;
13163;SDS011;6647;53.688;10.746;2024-01-16T05:02:44;8.70;;;6.37;;
13163;SDS011;6647;53.688;10.746;2024-01-16T05:03:44;11.57;;;5.90;;
13163;SDS011;6647;53.688;10.746;2024-01-16T05:04:45;8.87;;;5.50;;
13163;SDS011;6647;53.688;10.746;2024-01-16T05:05:49;9.50;;;6.25;;
13163;SDS011;6647;53.688;10.746;2024-01-16T05:06:50;11.73;;;6.13;;
13163;SDS011;6647;53.688;10.746;2024-01-16T05:07:51;8.68;;;5.90;;
13163;SDS011;6647;53.688;10.746;2024-01-16T05:08:53;9.10;;;6.05;;
13163;SDS011;6647;53.688;10.746;2024-01-16T05:09:53;10.93;;;5.40;;
13163;SDS011;6647;53.688;10.746;2024-01-16T05:10:55;11.40;;;6.13;;
13163;SDS011;6647;53.688;10.746;2024-01-16T05:11:55;12.53;;;6.17;;
13163;SDS011;6647;53.688;10.746;2024-01-16T05:12:55;9.07;;;5.73;;
13163;SDS011;6647;53.688;10.746;2024-01-16T05:13:57;7.65;;;5.90;;
13163;SDS011;6647;53.688;10.746;2024-01-16T05:14:58;10.93;;;6.32;;
13163;SDS011;6647;53.688;10.746;2024-01-16T05:15:59;7.33;;;6.20;;
13163;SDS011;6647;53.688;10.746;2024-01-16T05:16:59;13.57;;;5.93;;
13163;SDS011;6647;53.688;10.746;2024-01-16T05:17:59;8.40;;;6.00;;
13163;SDS011;6647;53.688;10.746;2024-01-16T05:18:59;8.87;;;6.13;;
13163;SDS011;6647;53.688;10.746;2024-01-16T05:20:02;9.83;;;6.57;;
13163;SDS011;6647;53.688;10.746;2024-01-16T05:21:07;11.93;;;6.40;;
13163;SDS011;6647;53.688;10.746;2024-01-16T05:22:09;10.73;;;6.55;;
13163;SDS011;6647;53.688;10.746;2024-01-16T05:23:10;9.50;;;7.00;;
13163;SDS011;6647;53.688;10.746;2024-01-16T05:24:11;10.20;;;6.67;;
13163;SDS011;6647;53.688;10.746;2024-01-16T05:25:12;10.55;;;7.10;;
13163;SDS011;6647;53.688;10.746;2024-01-16T05:26:12;11.30;;;6.80;;
13163;SDS011;6647;53.688;10.746;2024-01-16T05:27:13;12.93;;;6.57;;
13163;SDS011;6647;53.688;10.746;2024-01-16T05:28:14;11.57;;;6.87;;
13163;SDS011;6647;53.688;10.746;2024-01-16T05:29:15;10.10;;;6.80;;
13163;SDS011;6647;53.688;10.746;2024-01-16T05:30:15;9.57;;;6.90;;
13163;SDS011;6647;53.688;10.746;2024-01-16T05:31:15;10.67;;;6.33;;
13163;SDS011;6647;53.688;10.746;2024-01-16T05:32:16;8.87;;;7.07;;
13163;SDS011;6647;53.688;10.746;2024-01-16T05:33:16;11.17;;;6.90;;
13163;SDS011;6647;53.688;10.746;2024-01-16T05:34:16;8.47;;;5.90;;
13163;SDS011;6647;53.688;10.746;2024-01-16T05:35:17;9.50;;;6.60;;
13163;SDS011;6647;53.688;10.746;2024-01-16T05:36:17;7.40;;;5.70;;
13163;SDS011;6647;53.688;10.746;2024-01-16T05:37:18;12.43;;;6.43;;
13163;SDS011;6647;53.688;10.746;2024-01-16T05:38:19;10.75;;;6.70;;
13163;SDS011;6647;53.688;10.746;2024-01-16T05:39:20;9.95;;;7.00;;
13163;SDS011;6647;53.688;10.746;2024-01-16T05:40:21;8.98;;;6.97;;
13163;SDS011;6647;53.688;10.746;2024-01-16T05:41:24;10.07;;;6.30;;
13163;SDS011;6647;53.688;10.746;2024-01-16T05:42:26;9.75;;;6.45;;
13163;SDS011;6647;53.688;10.746;2024-01-16T05:43:28;11.02;;;6.85;;
13163;SDS011;6647;53.688;10.746;2024-01-16T05:44:29;9.05;;;6.40;;
13163;SDS011;6647;53.688;10.746;2024-01-16T05:45:30;7.70;;;6.30;;
13163;SDS011;6647;53.688;10.746;2024-01-16T05:46:31;8.93;;;6.90;;
13163;SDS011;6647;53.688;10.746;2024-01-16T05:47:32;12.88;;;7.40;;
13163;SDS011;6647;53.688;10.746;2024-01-16T05:48:34;10.52;;;6.88;;
13163;SDS011;6647;53.688;10.746;2024-01-16T05:49:35;12.23;;;6.13;;
13163;SDS011;6647;53.688;10.746;2024-01-16T05:50:36;12.52;;;6.90;;
13163;SDS011;6647;53.688;10.746;2024-01-16T05:51:37;8.70;;;6.63;;
13163;SDS011;6647;53.688;10.746;2024-01-16T05:52:39;11.20;;;8.18;;
13163;SDS011;6647;53.688;10.746;2024-01-16T05:53:41;12.07;;;7.97;;
13163;SDS011;6647;53.688;10.746;2024-01-16T05:54:42;8.95;;;7.22;;
13163;SDS011;6647;53.688;10.746;2024-01-16T05:55:42;10.50;;;7.87;;
13163;SDS011;6647;53.688;10.746;2024-01-16T05:56:43;9.60;;;7.03;;
13163;SDS011;6647;53.688;10.746;2024-01-16T05:57:43;14.77;;;8.67;;
13163;SDS011;6647;53.688;10.746;2024-01-16T05:58:45;11.60;;;6.95;;
13163;SDS011;6647;53.688;10.746;2024-01-16T05:59:45;10.47;;;7.30;;
13163;SDS011;6647;53.688;10.746;2024-01-16T06:00:45;14.93;;;7.00;;
13163;SDS011;6647;53.688;10.746;2024-01-16T06:01:46;14.20;;;8.50;;
13163;SDS011;6647;53.688;10.746;2024-01-16T06:02:46;15.97;;;9.17;;
13163;SDS011;6647;53.688;10.746;2024-01-16T06:03:46;12.47;;;8.30;;
13163;SDS011;6647;53.688;10.746;2024-01-16T06:04:50;14.55;;;8.00;;
13163;SDS011;6647;53.688;10.746;2024-01-16T06:05:52;12.93;;;8.30;;
13163;SDS011;6647;53.688;10.746;2024-01-16T06:06:54;13.52;;;8.02;;